createdAt,value
2023-05-21T00:01:25.705Z,101985.06
2023-05-21T00:03:52.619Z,101975.53
2023-05-21T00:06:20.836Z,101980.56
2023-05-21T00:08:47.628Z,101979.38
2023-05-21T00:11:14.329Z,101975.22
2023-05-21T00:13:40.987Z,101972.53
2023-05-21T00:16:07.816Z,101976.84
2023-05-21T00:18:34.420Z,101978.47
2023-05-21T00:21:01.755Z,101980.41
2023-05-21T00:23:28.568Z,101970.09
2023-05-21T00:25:55.117Z,101975.47
2023-05-21T00:28:21.720Z,101971.28
2023-05-21T00:30:48.234Z,101966.38
2023-05-21T00:33:14.923Z,101969.50
2023-05-21T00:35:41.665Z,101965.31
2023-05-21T00:38:08.559Z,101967.69
2023-05-21T00:40:36.267Z,101960.38
2023-05-21T00:43:03.343Z,101958.16
2023-05-21T00:45:30.119Z,101955.16
2023-05-21T00:47:56.775Z,101957.53
2023-05-21T00:50:26.295Z,101953.34
2023-05-21T00:52:53.295Z,101953.78
2023-05-21T00:55:19.993Z,101946.50
2023-05-21T00:57:46.657Z,101945.00
2023-05-21T01:00:14.505Z,101949.75
2023-05-21T01:02:42.084Z,101946.63
2023-05-21T01:05:09.731Z,101951.56
2023-05-21T01:07:38.942Z,101941.28
2023-05-21T01:10:08.451Z,101942.91
2023-05-21T01:12:36.158Z,101934.84
2023-05-21T01:15:04.205Z,101942.91
2023-05-21T01:17:31.780Z,101942.59
2023-05-21T01:19:59.055Z,101944.94
2023-05-21T01:22:28.513Z,101932.00
2023-05-21T01:24:55.605Z,101931.41
2023-05-21T01:27:22.747Z,101938.81
2023-05-21T01:29:50.085Z,101931.09
2023-05-21T01:32:52.047Z,101922.75
2023-05-21T01:35:33.725Z,101929.28
2023-05-21T01:38:24.696Z,101932.09
2023-05-21T01:41:03.880Z,101935.22
2023-05-21T01:43:36.979Z,101927.59
2023-05-21T01:46:05.305Z,101923.56
2023-05-21T01:48:34.670Z,101927.00
2023-05-21T01:51:03.671Z,101927.44
2023-05-21T01:53:30.537Z,101928.91
2023-05-21T01:55:57.111Z,101929.66
2023-05-21T01:58:24.252Z,101924.44
2023-05-21T02:00:51.175Z,101928.31
2023-05-21T02:03:20.699Z,101927.25
2023-05-21T02:05:47.555Z,101927.69
2023-05-21T02:08:15.597Z,101920.06
2023-05-21T02:10:42.224Z,101919.00
2023-05-21T02:13:08.792Z,101921.81
2023-05-21T02:15:35.688Z,101922.25
2023-05-21T02:18:03.478Z,101922.66
2023-05-21T02:20:31.063Z,101921.16
2023-05-21T02:22:57.599Z,101916.28
2023-05-21T02:25:24.153Z,101920.88
2023-05-21T02:27:53.479Z,101921.75
2023-05-21T02:30:20.836Z,101914.16
2023-05-21T02:32:48.909Z,101918.75
2023-05-21T02:35:16.212Z,101919.94
2023-05-21T02:37:44.224Z,101922.31
2023-05-21T02:40:12.024Z,101921.56
2023-05-21T02:42:41.267Z,101930.34
2023-05-21T02:45:11.879Z,101920.06
2023-05-21T02:47:41.367Z,101918.25
2023-05-21T02:50:09.202Z,101920.19
2023-05-21T02:52:43.108Z,101911.53
2023-05-21T02:55:09.751Z,101920.31
2023-05-21T02:57:36.273Z,101918.50
2023-05-21T03:00:05.934Z,101923.13
2023-05-21T03:02:33.362Z,101915.50
2023-05-21T03:05:00.676Z,101914.44
2023-05-21T03:07:27.255Z,101910.28
2023-05-21T03:09:53.965Z,101919.94
2023-05-21T03:12:20.634Z,101908.47
2023-05-21T03:14:49.352Z,101908.91
2023-05-21T03:17:16.998Z,101909.66
2023-05-21T03:19:44.243Z,101908.16
2023-05-21T03:22:14.154Z,101905.47
2023-05-21T03:24:41.357Z,101905.47
2023-05-21T03:27:08.858Z,101899.81
2023-05-21T03:29:36.191Z,101899.06
2023-05-21T03:32:03.422Z,101896.81
2023-05-21T03:34:34.393Z,101900.69
2023-05-21T03:37:01.289Z,101895.31
2023-05-21T03:39:28.518Z,101895.63
2023-05-21T03:41:56.360Z,101887.28
2023-05-21T03:44:32.802Z,101899.50
2023-05-21T03:47:17.192Z,101888.78
2023-05-21T03:49:43.998Z,101888.78
2023-05-21T03:52:10.842Z,101889.53
2023-05-21T03:54:37.497Z,101889.09
2023-05-21T03:57:07.414Z,101886.84
2023-05-21T03:59:34.496Z,101884.94
2023-05-21T04:02:01.280Z,101883.00
2023-05-21T04:04:29.490Z,101887.91
2023-05-21T04:06:56.141Z,101889.41
2023-05-21T04:09:23.195Z,101892.09
2023-05-21T04:11:51.964Z,101887.91
2023-05-21T04:14:18.587Z,101886.41
2023-05-21T04:16:45.158Z,101891.03
2023-05-21T04:19:11.745Z,101886.09
2023-05-21T04:21:38.345Z,101892.66
2023-05-21T04:24:05.790Z,101898.44
2023-05-21T04:26:48.564Z,101887.28
2023-05-21T04:29:21.291Z,101887.59
2023-05-21T04:31:49.837Z,101891.78
2023-05-21T04:34:19.888Z,101897.13
2023-05-21T04:36:46.559Z,101893.28
2023-05-21T04:39:14.672Z,101895.94
2023-05-21T04:41:41.378Z,101895.63
2023-05-21T04:44:08.771Z,101898.63
2023-05-21T04:46:35.894Z,101898.63
2023-05-21T04:49:05.948Z,101892.09
2023-05-21T04:51:32.552Z,101896.69
2023-05-21T04:53:59.687Z,101894.78
2023-05-21T04:56:29.574Z,101897.75
2023-05-21T04:58:58.687Z,101895.84
2023-05-21T05:01:27.143Z,101893.78
2023-05-21T05:03:54.080Z,101905.13
2023-05-21T05:06:21.419Z,101902.75
2023-05-21T05:08:48.248Z,101906.50
2023-05-21T05:11:15.879Z,101909.91
2023-05-21T05:13:42.493Z,101911.84
2023-05-21T05:16:09.468Z,101910.22
2023-05-21T05:18:36.761Z,101905.75
2023-05-21T05:21:03.697Z,101910.22
2023-05-21T05:23:30.610Z,101910.09
2023-05-21T05:25:57.227Z,101900.00
2023-05-21T05:28:23.811Z,101895.72
2023-05-21T05:30:50.465Z,101901.38
2023-05-21T05:33:23.054Z,101901.38
2023-05-21T05:35:49.641Z,101895.13
2023-05-21T05:38:16.957Z,101899.63
2023-05-21T05:40:43.610Z,101905.00
2023-05-21T05:43:10.185Z,101896.84
2023-05-21T05:45:36.981Z,101899.25
2023-05-21T05:48:10.001Z,101902.56
2023-05-21T05:50:36.662Z,101901.38
2023-05-21T05:53:03.331Z,101896.63
2023-05-21T05:55:29.844Z,101902.63
2023-05-21T05:57:56.384Z,101904.84
2023-05-21T06:00:23.022Z,101902.31
2023-05-21T06:02:50.964Z,101897.81
2023-05-21T06:05:17.792Z,101900.69
2023-05-21T06:07:44.405Z,101896.56
2023-05-21T06:10:11.037Z,101890.47
2023-05-21T06:12:37.708Z,101891.72
2023-05-21T06:15:06.100Z,101889.84
2023-05-21T06:17:33.151Z,101885.72
2023-05-21T06:20:00.328Z,101889.47
2023-05-21T06:22:27.673Z,101886.34
2023-05-21T06:24:55.089Z,101887.72
2023-05-21T06:27:21.574Z,101876.78
2023-05-21T06:29:49.143Z,101880.81
2023-05-21T06:32:15.762Z,101883.72
2023-05-21T06:34:42.372Z,101886.53
2023-05-21T06:37:08.976Z,101882.78
2023-05-21T06:39:35.523Z,101886.53
2023-05-21T06:42:03.007Z,101886.53
2023-05-21T06:44:44.333Z,101883.78
2023-05-21T06:47:17.423Z,101880.88
2023-05-21T06:49:44.057Z,101879.19
2023-05-21T06:52:11.204Z,101885.03
2023-05-21T06:54:38.266Z,101884.00
2023-05-21T06:57:05.968Z,101886.97
2023-05-21T06:59:32.546Z,101882.47
2023-05-21T07:02:01.015Z,101880.69
2023-05-21T07:04:28.930Z,101876.50
2023-05-21T07:06:55.417Z,101874.38
2023-05-21T07:09:23.129Z,101878.56
2023-05-21T07:11:49.907Z,101882.00
2023-05-21T07:14:17.027Z,101872.84
2023-05-21T07:16:43.535Z,101870.72
2023-05-21T07:19:10.431Z,101869.28
2023-05-21T07:21:37.459Z,101879.06
2023-05-21T07:24:06.343Z,101883.00
2023-05-21T07:26:32.868Z,101882.50
2023-05-21T07:28:59.428Z,101877.75
2023-05-21T07:31:26.736Z,101884.84
2023-05-21T07:33:53.322Z,101886.19
2023-05-21T07:36:24.224Z,101887.66
2023-05-21T07:38:51.136Z,101882.94
2023-05-21T07:41:18.802Z,101884.78
2023-05-21T07:43:46.495Z,101886.47
2023-05-21T07:46:14.041Z,101889.06
2023-05-21T07:48:42.048Z,101882.06
2023-05-21T07:51:09.905Z,101883.63
2023-05-21T07:53:36.538Z,101887.56
2023-05-21T07:56:06.943Z,101878.22
2023-05-21T07:58:35.245Z,101875.75
2023-05-21T08:01:02.797Z,101869.75
2023-05-21T08:03:30.879Z,101868.94
2023-05-21T08:05:57.686Z,101865.50
2023-05-21T08:08:24.245Z,101857.75
2023-05-21T08:10:53.210Z,101863.47
2023-05-21T08:13:21.737Z,101861.91
2023-05-21T08:15:52.079Z,101856.28
2023-05-21T08:18:20.588Z,101856.97
2023-05-21T08:20:48.279Z,101857.97
2023-05-21T08:23:16.544Z,101846.81
2023-05-21T08:25:48.918Z,101852.88
2023-05-21T08:28:15.745Z,101853.66
2023-05-21T08:30:42.240Z,101850.28
2023-05-21T08:33:08.920Z,101856.38
2023-05-21T08:35:35.906Z,101864.34
2023-05-21T08:38:18.481Z,101858.63
2023-05-21T08:40:56.179Z,101855.25
2023-05-21T08:43:27.217Z,101853.47
2023-05-21T08:45:55.427Z,101854.03
2023-05-21T08:48:25.532Z,101852.63
2023-05-21T08:50:53.757Z,101861.66
2023-05-21T08:53:28.972Z,101858.53
2023-05-21T08:55:57.396Z,101858.63
2023-05-21T08:58:33.545Z,101859.97
2023-05-21T09:01:00.459Z,101872.13
2023-05-21T09:03:29.436Z,101868.97
2023-05-21T09:05:57.416Z,101864.06
2023-05-21T09:08:35.017Z,101873.19
2023-05-21T09:11:05.629Z,101871.75
2023-05-21T09:13:40.178Z,101862.16
2023-05-21T09:16:13.237Z,101867.13
2023-05-21T09:18:39.886Z,101860.94
2023-05-21T09:21:31.809Z,101873.72
2023-05-21T09:24:03.921Z,101858.47
2023-05-21T09:26:30.615Z,101847.41
2023-05-21T09:29:01.795Z,101851.06
2023-05-21T09:31:29.557Z,101857.44
2023-05-21T09:33:56.238Z,101850.50
2023-05-21T09:36:24.782Z,101841.84
2023-05-21T09:38:54.173Z,101844.97
2023-05-21T09:41:30.874Z,101849.72
2023-05-21T09:44:02.302Z,101838.13
2023-05-21T09:46:38.584Z,101842.78
2023-05-21T09:49:06.189Z,101842.50
2023-05-21T09:51:32.972Z,101834.84
2023-05-21T09:53:59.440Z,101836.00
2023-05-21T09:56:31.732Z,101835.94
2023-05-21T09:59:06.700Z,101828.97
2023-05-21T10:01:34.509Z,101829.06
2023-05-21T10:04:06.505Z,101816.25
2023-05-21T10:06:37.506Z,101817.84
2023-05-21T10:09:09.967Z,101815.84
2023-05-21T10:11:37.292Z,101807.41
2023-05-21T10:14:09.086Z,101817.25
2023-05-21T10:16:37.257Z,101808.66
2023-05-21T10:19:05.256Z,101810.19
2023-05-21T10:21:33.397Z,101812.91
2023-05-21T10:24:02.727Z,101802.13
2023-05-21T10:26:30.433Z,101800.69
2023-05-21T10:29:00.198Z,101799.00
2023-05-21T10:31:27.853Z,101800.56
2023-05-21T10:33:55.405Z,101802.00
2023-05-21T10:36:23.749Z,101794.19
2023-05-21T10:38:50.326Z,101789.44
2023-05-21T10:41:19.982Z,101786.56
2023-05-21T10:44:06.714Z,101788.75
2023-05-21T10:46:53.319Z,101787.00
2023-05-21T10:49:33.975Z,101780.16
2023-05-21T10:52:39.765Z,101793.31
2023-05-21T10:55:24.821Z,101788.47
2023-05-21T10:57:56.974Z,101784.66
2023-05-21T11:00:26.775Z,101793.63
2023-05-21T11:02:53.892Z,101788.50
2023-05-21T11:05:42.779Z,101786.28
2023-05-21T11:08:25.543Z,101778.59
2023-05-21T11:10:58.200Z,101788.44
2023-05-21T11:13:31.401Z,101787.09
2023-05-21T11:15:57.910Z,101782.06
2023-05-21T11:18:44.361Z,101787.75
2023-05-21T11:21:13.829Z,101777.13
2023-05-21T11:24:01.299Z,101781.34
2023-05-21T11:26:29.834Z,101775.22
2023-05-21T11:29:05.448Z,101753.34
2023-05-21T11:31:38.077Z,101765.34
2023-05-21T11:34:10.938Z,101754.91
2023-05-21T11:36:38.186Z,101753.88
2023-05-21T11:39:21.913Z,101749.13
2023-05-21T11:41:59.796Z,101746.03
2023-05-21T11:44:42.619Z,101747.72
2023-05-21T11:47:11.083Z,101742.66
2023-05-21T11:49:38.843Z,101739.91
2023-05-21T11:52:07.108Z,101736.38
2023-05-21T11:54:38.403Z,101747.44
2023-05-21T11:57:08.557Z,101735.41
2023-05-21T11:59:35.765Z,101734.38
2023-05-21T12:02:03.720Z,101737.53
2023-05-21T12:04:31.115Z,101730.75
2023-05-21T12:07:00.415Z,101729.63
2023-05-21T12:09:26.888Z,101728.97
2023-05-21T12:11:53.549Z,101725.13
2023-05-21T12:14:21.484Z,101720.44
2023-05-21T12:16:48.059Z,101717.28
2023-05-21T12:19:17.698Z,101706.97
2023-05-21T12:21:44.257Z,101710.00
2023-05-21T12:24:11.058Z,101711.16
2023-05-21T12:26:37.641Z,101706.59
2023-05-21T12:29:04.727Z,101704.84
2023-05-21T12:31:32.765Z,101703.94
2023-05-21T12:33:59.676Z,101691.81
2023-05-21T12:36:29.419Z,101702.16
2023-05-21T12:38:57.583Z,101701.00
2023-05-21T12:41:24.116Z,101697.94
2023-05-21T12:43:51.328Z,101699.47
2023-05-21T12:46:18.950Z,101711.94
2023-05-21T12:48:57.857Z,101702.19
2023-05-21T12:51:24.465Z,101695.53
2023-05-21T12:53:51.558Z,101692.41
2023-05-21T12:56:18.085Z,101690.16
2023-05-21T12:58:50.493Z,101690.06
2023-05-21T13:01:17.063Z,101697.19
2023-05-21T13:03:45.005Z,101697.41
2023-05-21T13:06:11.484Z,101699.59
2023-05-21T13:08:38.161Z,101707.84
2023-05-21T13:11:04.817Z,101703.50
2023-05-21T13:13:31.523Z,101703.28
2023-05-21T13:16:00.556Z,101703.50
2023-05-21T13:18:27.175Z,101692.16
2023-05-21T13:20:53.820Z,101694.81
2023-05-21T13:23:20.449Z,101692.09
2023-05-21T13:25:46.892Z,101691.00
2023-05-21T13:28:15.287Z,101688.78
2023-05-21T13:30:41.828Z,101682.09
2023-05-21T13:33:08.499Z,101673.13
2023-05-21T13:35:35.266Z,101671.06
2023-05-21T13:38:02.061Z,101675.41
2023-05-21T13:40:28.953Z,101674.59
2023-05-21T13:42:55.495Z,101667.66
2023-05-21T13:45:24.249Z,101673.28
2023-05-21T13:47:50.984Z,101670.25
2023-05-21T13:50:17.709Z,101672.97
2023-05-21T13:52:44.357Z,101669.81
2023-05-21T13:55:11.066Z,101669.75
2023-05-21T13:57:37.678Z,101679.66
2023-05-21T14:00:04.815Z,101679.50
2023-05-21T14:02:34.662Z,101672.81
2023-05-21T14:05:01.402Z,101679.59
2023-05-21T14:07:27.864Z,101668.91
2023-05-21T14:09:54.527Z,101680.03
2023-05-21T14:12:21.707Z,101677.25
2023-05-21T14:14:49.836Z,101678.72
2023-05-21T14:17:16.436Z,101677.56
2023-05-21T14:19:42.943Z,101688.72
2023-05-21T14:22:09.461Z,101684.75
2023-05-21T14:24:35.902Z,101676.06
2023-05-21T14:27:02.464Z,101676.59
2023-05-21T14:29:28.941Z,101679.09
2023-05-21T14:31:55.498Z,101670.38
2023-05-21T14:34:22.038Z,101682.00
2023-05-21T14:36:48.611Z,101677.56
2023-05-21T14:39:15.396Z,101667.94
2023-05-21T14:41:41.864Z,101667.91
2023-05-21T14:44:08.445Z,101674.63
2023-05-21T14:46:35.025Z,101655.13
2023-05-21T14:49:01.704Z,101663.34
2023-05-21T14:51:28.243Z,101657.84
2023-05-21T14:53:56.974Z,101654.09
2023-05-21T14:56:26.728Z,101654.88
2023-05-21T14:58:53.591Z,101648.28
2023-05-21T15:01:20.307Z,101647.13
2023-05-21T15:03:46.873Z,101650.09
2023-05-21T15:06:13.891Z,101647.38
2023-05-21T15:08:40.534Z,101638.03
2023-05-21T15:11:09.897Z,101640.47
2023-05-21T15:13:36.669Z,101634.34
2023-05-21T15:16:03.480Z,101630.94
2023-05-21T15:18:30.109Z,101634.44
2023-05-21T15:20:56.657Z,101630.19
2023-05-21T15:23:23.213Z,101634.88
2023-05-21T15:25:49.820Z,101634.41
2023-05-21T15:28:16.948Z,101630.69
2023-05-21T15:30:43.577Z,101630.44
2023-05-21T15:33:11.065Z,101639.44
2023-05-21T15:35:38.079Z,101631.81
2023-05-21T15:38:04.954Z,101639.69
2023-05-21T15:40:32.864Z,101644.22
2023-05-21T15:42:59.536Z,101631.69
2023-05-21T15:45:26.235Z,101629.50
2023-05-21T15:47:52.960Z,101629.03
2023-05-21T15:50:19.490Z,101617.69
2023-05-21T15:52:45.944Z,101623.38
2023-05-21T15:55:13.883Z,101616.03
2023-05-21T15:57:40.425Z,101614.59
2023-05-21T16:00:08.145Z,101620.78
2023-05-21T16:02:35.566Z,101607.22
2023-05-21T16:05:02.256Z,101607.00
2023-05-21T16:07:28.801Z,101613.91
2023-05-21T16:09:55.297Z,101602.84
2023-05-21T16:12:21.827Z,101608.53
2023-05-21T16:14:50.025Z,101605.59
2023-05-21T16:17:17.067Z,101615.69
2023-05-21T16:19:43.712Z,101619.16
2023-05-21T16:22:10.949Z,101622.88
2023-05-21T16:24:37.781Z,101618.44
2023-05-21T16:27:04.911Z,101616.69
2023-05-21T16:29:31.647Z,101624.03
2023-05-21T16:31:58.120Z,101622.56
2023-05-21T16:34:24.666Z,101629.00
2023-05-21T16:36:51.780Z,101628.28
2023-05-21T16:39:18.466Z,101619.66
2023-05-21T16:41:45.049Z,101623.59
2023-05-21T16:44:11.647Z,101629.03
2023-05-21T16:46:38.307Z,101624.34
2023-05-21T16:49:05.260Z,101620.66
2023-05-21T16:51:34.220Z,101619.66
2023-05-21T16:54:02.335Z,101624.59
2023-05-21T16:56:28.770Z,101623.13
2023-05-21T16:58:55.278Z,101625.13
2023-05-21T17:01:21.812Z,101614.03
2023-05-21T17:03:48.523Z,101622.16
2023-05-21T17:06:15.249Z,101626.09
2023-05-21T17:08:42.650Z,101626.84
2023-05-21T17:11:09.384Z,101627.59
2023-05-21T17:13:35.878Z,101628.81
2023-05-21T17:16:02.401Z,101624.41
2023-05-21T17:18:28.910Z,101620.72
2023-05-21T17:20:56.385Z,101630.84
2023-05-21T17:23:23.075Z,101624.94
2023-05-21T17:25:49.617Z,101626.19
2023-05-21T17:28:16.070Z,101635.53
2023-05-21T17:30:42.998Z,101630.13
2023-05-21T17:33:10.474Z,101628.63
2023-05-21T17:35:37.447Z,101621.47
2023-05-21T17:38:04.331Z,101622.47
2023-05-21T17:40:30.928Z,101626.41
2023-05-21T17:42:57.464Z,101624.69
2023-05-21T17:45:23.919Z,101623.69
2023-05-21T17:47:50.750Z,101619.75
2023-05-21T17:50:17.361Z,101617.03
2023-05-21T17:52:43.835Z,101620.22
2023-05-21T17:55:10.526Z,101622.44
2023-05-21T17:57:37.040Z,101624.88
2023-05-21T18:00:05.144Z,101626.31
2023-05-21T18:02:38.535Z,101630.00
2023-05-21T18:05:05.435Z,101634.91
2023-05-21T18:07:32.040Z,101629.97
2023-05-21T18:09:58.536Z,101625.50
2023-05-21T18:12:25.036Z,101628.69
2023-05-21T18:14:51.470Z,101631.38
2023-05-21T18:17:18.027Z,101628.38
2023-05-21T18:19:44.498Z,101624.16
2023-05-21T18:22:11.110Z,101626.84
2023-05-21T18:24:38.221Z,101627.56
2023-05-21T18:27:04.864Z,101622.63
2023-05-21T18:29:31.624Z,101624.59
2023-05-21T18:31:58.227Z,101630.72
2023-05-21T18:34:24.780Z,101631.19
2023-05-21T18:36:51.257Z,101629.19
2023-05-21T18:39:17.817Z,101630.16
2023-05-21T18:41:44.321Z,101623.25
2023-05-21T18:44:10.981Z,101630.84
2023-05-21T18:46:37.835Z,101626.84
2023-05-21T18:49:04.979Z,101627.81
2023-05-21T18:51:31.791Z,101626.06
2023-05-21T18:53:58.671Z,101633.41
2023-05-21T18:56:25.858Z,101618.09
2023-05-21T18:58:52.452Z,101619.53
2023-05-21T19:01:19.076Z,101623.66
2023-05-21T19:03:45.663Z,101621.88
2023-05-21T19:06:12.192Z,101627.50
2023-05-21T19:08:40.414Z,101625.97
2023-05-21T19:11:07.370Z,101622.75
2023-05-21T19:13:34.183Z,101625.13
2023-05-21T19:16:01.965Z,101632.91
2023-05-21T19:18:31.582Z,101635.75
2023-05-21T19:21:00.115Z,101631.72
2023-05-21T19:23:26.726Z,101626.09
2023-05-21T19:25:53.257Z,101634.59
2023-05-21T19:28:20.082Z,101630.63
2023-05-21T19:30:46.620Z,101634.47
2023-05-21T19:33:13.562Z,101630.66
2023-05-21T19:35:41.842Z,101633.75
2023-05-21T19:38:10.780Z,101630.53
2023-05-21T19:40:37.531Z,101634.13
2023-05-21T19:43:04.453Z,101635.00
2023-05-21T19:45:30.936Z,101643.66
2023-05-21T19:47:59.008Z,101638.94
2023-05-21T19:50:28.339Z,101646.66
2023-05-21T19:52:57.004Z,101650.06
2023-05-21T19:55:24.461Z,101649.78
2023-05-21T19:57:51.021Z,101655.00
2023-05-21T20:00:18.274Z,101657.03
2023-05-21T20:02:46.221Z,101654.25
2023-05-21T20:05:12.953Z,101657.59
2023-05-21T20:07:39.647Z,101659.00
2023-05-21T20:10:07.033Z,101657.69
2023-05-21T20:12:33.576Z,101656.13
2023-05-21T20:15:00.824Z,101647.94
2023-05-21T20:17:28.565Z,101659.38
2023-05-21T20:19:57.249Z,101668.81
2023-05-21T20:22:23.966Z,101657.41
2023-05-21T20:24:50.638Z,101671.06
2023-05-21T20:27:19.442Z,101663.16
2023-05-21T20:29:46.204Z,101655.00
2023-05-21T20:32:13.183Z,101660.28
2023-05-21T20:34:50.720Z,101658.50
2023-05-21T20:37:28.283Z,101664.97
2023-05-21T20:39:57.661Z,101656.34
2023-05-21T20:42:28.359Z,101659.69
2023-05-21T20:44:55.457Z,101653.72
2023-05-21T20:47:23.435Z,101649.00
2023-05-21T20:49:53.696Z,101651.13
2023-05-21T20:52:20.755Z,101650.09
2023-05-21T20:54:48.779Z,101647.28
2023-05-21T20:57:15.457Z,101648.19
2023-05-21T20:59:42.249Z,101644.19
2023-05-21T21:02:13.721Z,101643.16
2023-05-21T21:04:42.096Z,101641.38
2023-05-21T21:07:09.990Z,101642.31
2023-05-21T21:09:38.604Z,101645.63
2023-05-21T21:12:21.257Z,101638.66
2023-05-21T21:14:51.554Z,101643.75
2023-05-21T21:17:18.034Z,101641.97
2023-05-21T21:19:44.528Z,101642.44
2023-05-21T21:22:11.165Z,101640.94
2023-05-21T21:24:37.711Z,101640.66
2023-05-21T21:27:04.528Z,101635.91
2023-05-21T21:29:30.999Z,101625.31
2023-05-21T21:31:57.571Z,101627.72
2023-05-21T21:34:25.170Z,101621.03
2023-05-21T21:36:51.727Z,101614.63
2023-05-21T21:39:18.200Z,101616.28
2023-05-21T21:41:44.801Z,101621.66
2023-05-21T21:44:11.402Z,101629.41
2023-05-21T21:46:37.906Z,101621.06
2023-05-21T21:49:04.439Z,101628.88
2023-05-21T21:51:30.976Z,101629.03
2023-05-21T21:53:57.447Z,101633.06
2023-05-21T21:56:23.943Z,101620.09
2023-05-21T21:58:50.573Z,101622.50
2023-05-21T22:01:17.631Z,101628.78
2023-05-21T22:03:44.207Z,101626.53
2023-05-21T22:06:10.905Z,101636.25
2023-05-21T22:08:37.438Z,101634.91
2023-05-21T22:11:03.983Z,101628.50
2023-05-21T22:13:30.454Z,101627.47
2023-05-21T22:15:57.369Z,101626.91
2023-05-21T22:18:38.899Z,101623.19
2023-05-21T22:21:09.582Z,101626.03
2023-05-21T22:23:37.161Z,101621.41
2023-05-21T22:26:03.792Z,101616.97
2023-05-21T22:28:30.440Z,101620.06
2023-05-21T22:30:57.270Z,101611.44
2023-05-21T22:33:24.382Z,101607.72
2023-05-21T22:35:50.960Z,101618.88
2023-05-21T22:38:17.911Z,101602.22
2023-05-21T22:40:44.476Z,101614.59
2023-05-21T22:43:11.119Z,101606.69
2023-05-21T22:45:38.434Z,101607.13
2023-05-21T22:48:07.356Z,101604.16
2023-05-21T22:50:34.024Z,101600.44
2023-05-21T22:53:00.706Z,101602.38
2023-05-21T22:55:27.275Z,101605.81
2023-05-21T22:57:53.790Z,101603.13
2023-05-21T23:00:20.484Z,101605.81
2023-05-21T23:02:47.906Z,101609.22
2023-05-21T23:05:15.010Z,101611.63
2023-05-21T23:07:41.944Z,101625.03
2023-05-21T23:10:09.226Z,101624.28
2023-05-21T23:12:36.897Z,101620.41
2023-05-21T23:15:05.519Z,101625.47
2023-05-21T23:17:32.086Z,101645.00
2023-05-21T23:19:59.300Z,101659.47
2023-05-21T23:22:26.236Z,101667.06
2023-05-21T23:24:54.092Z,101683.59
2023-05-21T23:27:20.784Z,101666.59
2023-05-21T23:29:47.245Z,101654.97
2023-05-21T23:32:13.876Z,101667.19
2023-05-21T23:34:40.325Z,101664.81
2023-05-21T23:37:06.878Z,101647.97
2023-05-21T23:39:33.380Z,101641.13
2023-05-21T23:42:00.027Z,101641.44
2023-05-21T23:44:26.496Z,101640.09
2023-05-21T23:46:53.029Z,101644.41
2023-05-21T23:49:19.508Z,101629.22
2023-05-21T23:51:46.734Z,101618.19
2023-05-21T23:54:13.264Z,101606.44
2023-05-21T23:56:39.830Z,101612.28
2023-05-21T23:59:06.498Z,101617.34
